createdAt,value
2018-06-29T00:01:11.509Z,59.10
2018-06-29T00:03:39.848Z,59.30
2018-06-29T00:06:08.145Z,59.40
2018-06-29T00:08:36.470Z,59.80
2018-06-29T00:11:05.774Z,60.10
2018-06-29T00:13:42.079Z,60.50
2018-06-29T00:16:10.358Z,60.50
2018-06-29T00:18:38.672Z,60.80
2018-06-29T00:21:06.957Z,60.50
2018-06-29T00:23:35.283Z,60.50
2018-06-29T00:26:03.617Z,60.40
2018-06-29T00:28:31.893Z,60.40
2018-06-29T00:31:01.197Z,60.50
2018-06-29T00:35:57.505Z,60.70
2018-06-29T00:38:25.814Z,61.00
2018-06-29T00:40:54.195Z,61.20
2018-06-29T00:43:22.450Z,62.30
2018-06-29T00:45:50.825Z,61.60
2018-06-29T00:48:19.053Z,61.50
2018-06-29T00:50:47.361Z,61.40
2018-06-29T00:53:15.669Z,61.10
2018-06-29T00:55:43.967Z,61.70
2018-06-29T00:58:12.317Z,61.50
2018-06-29T01:00:40.659Z,61.60
2018-06-29T01:03:08.983Z,61.70
2018-06-29T01:05:37.287Z,62.00
2018-06-29T01:08:05.641Z,62.10
2018-06-29T01:10:33.921Z,62.30
2018-06-29T01:13:02.324Z,63.00
2018-06-29T01:15:30.586Z,62.40
2018-06-29T01:17:58.901Z,62.40
2018-06-29T01:20:28.234Z,62.60
2018-06-29T01:22:56.535Z,62.90
2018-06-29T01:25:24.862Z,63.20
2018-06-29T01:27:53.189Z,63.70
2018-06-29T01:30:21.489Z,63.00
2018-06-29T01:32:49.781Z,63.30
2018-06-29T01:35:18.065Z,63.30
2018-06-29T01:37:46.418Z,63.30
2018-06-29T01:40:14.721Z,63.30
2018-06-29T01:42:43.007Z,63.30
2018-06-29T01:45:11.317Z,63.60
2018-06-29T01:47:39.618Z,63.60
2018-06-29T01:50:07.960Z,63.80
2018-06-29T01:52:36.304Z,63.80
2018-06-29T01:55:04.617Z,63.80
2018-06-29T01:57:32.929Z,63.90
2018-06-29T02:00:01.248Z,64.10
2018-06-29T02:02:29.546Z,64.20
2018-06-29T02:04:57.850Z,64.10
2018-06-29T02:07:26.149Z,64.30
2018-06-29T02:09:54.835Z,64.50
2018-06-29T02:12:23.133Z,64.60
2018-06-29T02:14:51.422Z,64.40
2018-06-29T02:17:19.709Z,64.40
2018-06-29T02:19:48.002Z,64.40
2018-06-29T02:22:16.310Z,64.40
2018-06-29T02:24:45.661Z,64.60
2018-06-29T02:27:13.957Z,64.40
2018-06-29T02:29:42.267Z,64.60
2018-06-29T02:32:10.589Z,64.50
2018-06-29T02:34:38.924Z,64.60
2018-06-29T02:37:07.217Z,64.40
2018-06-29T02:42:03.618Z,64.30
2018-06-29T02:44:31.951Z,64.10
2018-06-29T02:47:00.281Z,64.10
2018-06-29T02:49:28.573Z,64.20
2018-06-29T02:51:56.889Z,64.30
2018-06-29T02:54:25.185Z,64.20
2018-06-29T02:56:53.516Z,64.30
2018-06-29T03:01:49.819Z,64.20
2018-06-29T03:04:18.118Z,64.40
2018-06-29T03:06:46.418Z,64.40
2018-06-29T03:09:14.695Z,64.30
2018-06-29T03:11:42.947Z,64.10
2018-06-29T03:14:11.258Z,64.00
2018-06-29T03:16:39.835Z,64.30
2018-06-29T03:19:08.174Z,64.20
2018-06-29T03:21:36.482Z,64.20
2018-06-29T03:24:04.818Z,64.10
2018-06-29T03:26:33.112Z,64.30
2018-06-29T03:29:01.642Z,64.30
2018-06-29T03:31:29.963Z,64.50
2018-06-29T03:33:58.307Z,64.20
2018-06-29T03:36:26.607Z,64.30
2018-06-29T03:38:54.914Z,64.50
2018-06-29T03:41:23.241Z,64.60
2018-06-29T03:43:51.542Z,64.60
2018-06-29T03:46:19.887Z,64.90
2018-06-29T03:48:48.329Z,64.70
2018-06-29T03:51:16.655Z,64.60
2018-06-29T03:53:45.046Z,64.70
2018-06-29T03:56:13.338Z,64.80
2018-06-29T03:58:41.620Z,64.80
2018-06-29T04:03:37.998Z,64.60
2018-06-29T04:06:06.521Z,64.70
2018-06-29T04:08:34.826Z,64.40
2018-06-29T04:11:03.141Z,64.30
2018-06-29T04:13:31.447Z,64.30
2018-06-29T04:15:59.717Z,64.40
2018-06-29T04:18:28.022Z,64.60
2018-06-29T04:20:57.334Z,64.60
2018-06-29T04:23:25.705Z,64.70
2018-06-29T04:25:53.999Z,64.60
2018-06-29T04:28:22.321Z,64.50
2018-06-29T04:30:50.609Z,64.50
2018-06-29T04:33:18.937Z,64.70
2018-06-29T04:35:47.247Z,64.70
2018-06-29T04:38:15.541Z,64.50
2018-06-29T04:43:12.882Z,64.40
2018-06-29T04:45:41.237Z,64.30
2018-06-29T04:48:09.568Z,64.50
2018-06-29T04:53:05.913Z,64.50
2018-06-29T04:58:02.250Z,64.60
2018-06-29T05:00:30.604Z,64.60
2018-06-29T05:02:58.919Z,64.10
2018-06-29T05:05:27.527Z,64.30
2018-06-29T05:07:56.863Z,64.40
2018-06-29T05:10:25.183Z,64.50
2018-06-29T05:12:53.518Z,64.20
2018-06-29T05:15:21.824Z,64.10
2018-06-29T05:20:18.130Z,64.20
2018-06-29T05:22:46.427Z,64.10
2018-06-29T05:25:14.723Z,63.80
2018-06-29T05:30:11.163Z,63.40
2018-06-29T05:32:40.463Z,63.60
2018-06-29T05:35:08.874Z,63.70
2018-06-29T05:37:37.199Z,63.70
2018-06-29T05:40:05.682Z,63.80
2018-06-29T05:42:34.005Z,63.90
2018-06-29T05:45:03.344Z,63.90
2018-06-29T05:47:31.652Z,63.80
2018-06-29T05:49:59.941Z,63.90
2018-06-29T05:52:28.253Z,63.90
2018-06-29T05:54:56.590Z,63.80
2018-06-29T05:57:25.980Z,63.70
2018-06-29T05:59:54.255Z,63.70
2018-06-29T06:02:24.105Z,63.50
2018-06-29T06:04:52.514Z,63.30
2018-06-29T06:07:21.917Z,63.20
2018-06-29T06:12:20.015Z,62.80
2018-06-29T06:14:49.252Z,62.80
2018-06-29T06:17:20.727Z,62.60
2018-06-29T06:20:01.792Z,62.50
2018-06-29T06:22:31.090Z,62.40
2018-06-29T06:25:00.354Z,62.20
2018-06-29T06:27:28.717Z,62.10
2018-06-29T06:29:57.458Z,62.40
2018-06-29T06:32:26.005Z,62.50
2018-06-29T06:34:54.412Z,62.80
2018-06-29T06:37:22.717Z,62.40
2018-06-29T06:39:51.042Z,62.10
2018-06-29T06:42:19.450Z,62.00
2018-06-29T06:44:48.937Z,61.80
2018-06-29T06:47:17.241Z,61.70
2018-06-29T06:49:45.557Z,61.50
2018-06-29T06:52:13.921Z,61.40
2018-06-29T06:54:42.342Z,61.30
2018-06-29T06:57:10.642Z,61.10
2018-06-29T06:59:38.969Z,61.00
2018-06-29T07:02:07.304Z,60.90
2018-06-29T07:04:36.206Z,60.90
2018-06-29T07:07:04.520Z,60.80
2018-06-29T07:09:32.821Z,60.60
2018-06-29T07:12:01.127Z,60.60
2018-06-29T07:14:30.418Z,60.60
2018-06-29T07:16:58.758Z,60.50
2018-06-29T07:19:27.054Z,60.50
2018-06-29T07:21:55.386Z,60.40
2018-06-29T07:24:23.753Z,60.40
2018-06-29T07:26:52.022Z,61.00
2018-06-29T07:29:20.367Z,60.20
2018-06-29T07:31:49.718Z,60.20
2018-06-29T07:34:18.046Z,60.00
2018-06-29T07:36:46.402Z,60.00
2018-06-29T07:39:15.806Z,59.90
2018-06-29T07:41:44.105Z,59.90
2018-06-29T07:44:12.363Z,59.90
2018-06-29T07:46:40.651Z,59.80
2018-06-29T07:49:08.945Z,59.80
2018-06-29T07:51:37.273Z,59.80
2018-06-29T07:54:05.614Z,59.70
2018-06-29T07:56:33.974Z,59.60
2018-06-29T07:59:02.290Z,59.60
2018-06-29T08:01:30.578Z,59.60
2018-06-29T08:03:59.029Z,59.60
2018-06-29T08:06:27.282Z,59.50
2018-06-29T08:08:55.604Z,59.50
2018-06-29T08:11:23.936Z,59.40
2018-06-29T08:13:52.363Z,59.40
2018-06-29T08:16:20.665Z,59.40
2018-06-29T08:18:48.976Z,59.30
2018-06-29T08:21:17.325Z,59.30
2018-06-29T08:23:45.642Z,59.40
2018-06-29T08:26:28.420Z,59.20
2018-06-29T08:28:56.771Z,59.20
2018-06-29T08:31:25.097Z,59.10
2018-06-29T08:33:53.433Z,59.10
2018-06-29T08:36:21.756Z,59.10
2018-06-29T08:38:50.066Z,59.10
2018-06-29T08:41:18.396Z,59.00
2018-06-29T08:43:46.714Z,58.90
2018-06-29T08:46:15.040Z,59.00
2018-06-29T08:48:43.378Z,58.90
2018-06-29T08:51:11.755Z,58.90
2018-06-29T08:53:41.090Z,58.80
2018-06-29T08:56:09.398Z,58.80
2018-06-29T08:58:37.700Z,58.80
2018-06-29T09:01:06.024Z,58.80
2018-06-29T09:03:34.345Z,58.80
2018-06-29T09:06:02.625Z,58.80
2018-06-29T09:08:30.968Z,58.60
2018-06-29T09:13:27.291Z,59.10
2018-06-29T09:15:55.610Z,58.60
2018-06-29T09:18:23.926Z,58.60
2018-06-29T09:20:52.281Z,58.50
2018-06-29T09:23:20.570Z,58.40
2018-06-29T09:25:48.881Z,58.50
2018-06-29T09:28:17.173Z,58.40
2018-06-29T09:33:14.541Z,58.40
2018-06-29T09:35:42.850Z,58.40
2018-06-29T09:38:12.177Z,58.30
2018-06-29T09:40:40.465Z,58.30
2018-06-29T09:43:08.784Z,58.30
2018-06-29T09:45:37.094Z,58.20
2018-06-29T09:48:05.580Z,58.20
2018-06-29T09:50:33.748Z,58.20
2018-06-29T09:53:03.041Z,58.10
2018-06-29T09:55:31.348Z,58.10
2018-06-29T09:57:59.824Z,58.10
2018-06-29T10:00:31.741Z,58.10
2018-06-29T10:03:00.622Z,58.00
2018-06-29T10:05:29.318Z,58.00
2018-06-29T10:07:57.648Z,58.00
2018-06-29T10:10:25.947Z,58.00
2018-06-29T10:12:54.262Z,58.00
2018-06-29T10:15:22.571Z,57.90
2018-06-29T10:17:50.858Z,57.90
2018-06-29T10:20:19.252Z,57.90
2018-06-29T10:22:47.514Z,58.50
2018-06-29T10:25:15.832Z,57.90
2018-06-29T10:27:44.099Z,57.90
2018-06-29T10:30:13.418Z,57.90
2018-06-29T10:32:41.725Z,57.90
2018-06-29T10:35:10.072Z,57.90
2018-06-29T10:37:38.524Z,58.00
2018-06-29T10:40:06.812Z,57.80
2018-06-29T10:42:35.126Z,57.80
2018-06-29T10:45:03.577Z,57.80
2018-06-29T10:47:31.734Z,57.80
2018-06-29T10:50:00.083Z,57.80
2018-06-29T10:52:28.324Z,57.80
2018-06-29T10:54:57.590Z,57.80
2018-06-29T10:57:25.914Z,57.70
2018-06-29T10:59:54.230Z,57.70
2018-06-29T11:02:22.525Z,57.70
2018-06-29T11:04:50.838Z,57.60
2018-06-29T11:07:19.143Z,57.60
2018-06-29T11:09:47.437Z,57.60
2018-06-29T11:12:15.735Z,57.60
2018-06-29T11:14:44.069Z,57.50
2018-06-29T11:17:12.353Z,57.50
2018-06-29T11:19:40.662Z,57.50
2018-06-29T11:22:09.968Z,57.50
2018-06-29T11:24:38.272Z,57.50
2018-06-29T11:27:06.574Z,57.50
2018-06-29T11:29:34.897Z,57.40
2018-06-29T11:32:03.437Z,57.50
2018-06-29T11:34:31.742Z,57.50
2018-06-29T11:37:00.075Z,57.50
2018-06-29T11:39:28.386Z,57.40
2018-06-29T11:41:56.689Z,57.50
2018-06-29T11:44:26.009Z,57.40
2018-06-29T11:46:54.282Z,57.40
2018-06-29T11:49:22.599Z,56.90
2018-06-29T11:51:50.878Z,57.40
2018-06-29T11:54:19.217Z,57.40
2018-06-29T11:56:47.527Z,57.40
2018-06-29T11:59:15.813Z,57.40
2018-06-29T12:01:44.117Z,57.30
2018-06-29T12:04:12.426Z,57.30
2018-06-29T12:06:40.714Z,57.30
2018-06-29T12:09:10.626Z,57.30
2018-06-29T12:11:38.979Z,57.30
2018-06-29T12:14:07.290Z,57.30
2018-06-29T12:16:35.598Z,57.20
2018-06-29T12:19:04.051Z,57.20
2018-06-29T12:21:32.340Z,57.20
2018-06-29T12:24:00.656Z,57.20
2018-06-29T12:26:28.988Z,57.20
2018-06-29T12:28:57.330Z,57.30
2018-06-29T12:31:25.662Z,57.10
2018-06-29T12:33:54.296Z,57.10
2018-06-29T12:36:22.626Z,57.10
2018-06-29T12:38:50.929Z,57.00
2018-06-29T12:41:20.251Z,57.10
2018-06-29T12:43:48.577Z,57.00
2018-06-29T12:46:18.038Z,57.10
2018-06-29T12:48:46.354Z,57.10
2018-06-29T12:51:14.678Z,57.10
2018-06-29T12:53:42.976Z,57.10
2018-06-29T12:56:11.453Z,57.00
2018-06-29T12:58:39.943Z,57.00
2018-06-29T13:01:08.265Z,57.00
2018-06-29T13:03:36.576Z,57.00
2018-06-29T13:06:04.906Z,57.00
2018-06-29T13:08:33.225Z,56.90
2018-06-29T13:11:01.613Z,56.90
2018-06-29T13:13:29.917Z,56.90
2018-06-29T13:15:59.210Z,56.90
2018-06-29T13:18:27.669Z,56.90
2018-06-29T13:20:56.015Z,56.80
2018-06-29T13:25:53.287Z,56.80
2018-06-29T13:28:21.672Z,56.80
2018-06-29T13:30:51.056Z,56.80
2018-06-29T13:33:19.275Z,56.80
2018-06-29T13:35:47.615Z,56.80
2018-06-29T13:38:15.929Z,56.80
2018-06-29T13:40:44.203Z,56.80
2018-06-29T13:43:12.618Z,56.80
2018-06-29T13:45:40.896Z,56.80
2018-06-29T13:48:09.216Z,56.80
2018-06-29T13:50:37.542Z,56.80
2018-06-29T13:53:06.014Z,56.80
2018-06-29T13:55:34.325Z,57.30
2018-06-29T13:58:03.147Z,56.80
2018-06-29T14:00:31.624Z,56.70
2018-06-29T14:03:00.024Z,56.70
2018-06-29T14:05:28.367Z,56.70
2018-06-29T14:07:56.685Z,56.60
2018-06-29T14:10:26.010Z,56.60
2018-06-29T14:12:54.412Z,56.60
2018-06-29T14:15:22.729Z,56.60
2018-06-29T14:17:51.086Z,56.70
2018-06-29T14:20:19.428Z,56.60
2018-06-29T14:22:47.750Z,56.70
2018-06-29T14:25:16.066Z,56.70
2018-06-29T14:27:45.425Z,56.60
2018-06-29T14:30:13.781Z,56.60
2018-06-29T14:32:42.101Z,56.60
2018-06-29T14:35:10.421Z,56.60
2018-06-29T14:37:39.769Z,56.60
2018-06-29T14:40:08.059Z,56.60
2018-06-29T14:42:36.467Z,56.50
2018-06-29T14:45:05.710Z,56.50
2018-06-29T14:47:34.050Z,56.50
2018-06-29T14:50:02.426Z,56.50
2018-06-29T14:52:30.737Z,56.50
2018-06-29T14:54:59.074Z,56.40
2018-06-29T14:57:27.366Z,56.40
2018-06-29T14:59:55.677Z,56.40
2018-06-29T15:02:24.030Z,56.40
2018-06-29T15:04:52.337Z,56.40
2018-06-29T15:07:20.695Z,56.40
2018-06-29T15:09:49.010Z,56.40
2018-06-29T15:14:45.469Z,56.50
2018-06-29T15:17:14.867Z,56.60
2018-06-29T15:22:11.290Z,56.50
2018-06-29T15:24:39.682Z,56.40
2018-06-29T15:27:07.987Z,56.40
2018-06-29T15:29:36.327Z,56.90
2018-06-29T15:32:04.649Z,56.40
2018-06-29T15:34:32.957Z,56.40
2018-06-29T15:37:01.323Z,56.40
2018-06-29T15:39:29.617Z,56.40
2018-06-29T15:41:58.043Z,56.40
2018-06-29T15:44:26.370Z,56.40
2018-06-29T15:46:54.718Z,56.40
2018-06-29T15:49:23.037Z,57.00
2018-06-29T15:51:51.426Z,56.40
2018-06-29T15:54:19.778Z,56.30
2018-06-29T15:56:48.077Z,56.40
2018-06-29T15:59:16.423Z,56.30
2018-06-29T16:01:44.725Z,56.30
2018-06-29T16:04:13.066Z,56.30
2018-06-29T16:06:41.446Z,56.30
2018-06-29T16:09:10.315Z,56.30
2018-06-29T16:11:38.638Z,56.30
2018-06-29T16:14:06.958Z,56.40
2018-06-29T16:16:35.272Z,56.40
2018-06-29T16:19:03.617Z,56.30
2018-06-29T16:21:32.064Z,56.30
2018-06-29T16:24:00.389Z,56.40
2018-06-29T16:26:28.671Z,56.40
2018-06-29T16:28:56.997Z,56.40
2018-06-29T16:31:26.348Z,56.40
2018-06-29T16:33:54.657Z,56.40
2018-06-29T16:36:22.993Z,56.40
2018-06-29T16:38:51.294Z,56.40
2018-06-29T16:41:20.650Z,56.40
2018-06-29T16:43:48.963Z,56.50
2018-06-29T16:46:17.307Z,56.40
2018-06-29T16:48:45.654Z,56.50
2018-06-29T16:51:13.997Z,56.40
2018-06-29T16:53:42.305Z,56.40
2018-06-29T16:56:10.615Z,56.40
2018-06-29T16:58:38.934Z,56.40
2018-06-29T17:01:07.331Z,56.40
2018-06-29T17:03:35.653Z,57.10
2018-06-29T17:06:04.095Z,56.40
2018-06-29T17:08:32.410Z,56.40
2018-06-29T17:11:00.728Z,56.40
2018-06-29T17:13:29.033Z,56.40
2018-06-29T17:15:57.418Z,56.40
2018-06-29T17:18:25.739Z,56.30
2018-06-29T17:20:54.057Z,56.30
2018-06-29T17:23:22.463Z,56.40
2018-06-29T17:25:51.782Z,56.40
2018-06-29T17:28:21.069Z,56.30
2018-06-29T17:30:49.400Z,56.30
2018-06-29T17:33:17.686Z,56.20
2018-06-29T17:35:45.986Z,56.20
2018-06-29T17:38:14.398Z,56.20
2018-06-29T17:40:43.754Z,56.10
2018-06-29T17:43:12.003Z,56.10
2018-06-29T17:45:40.374Z,56.10
2018-06-29T17:50:36.909Z,56.70
2018-06-29T17:53:05.366Z,56.10
2018-06-29T17:55:33.713Z,56.00
2018-06-29T17:58:02.089Z,56.00
2018-06-29T18:00:30.389Z,56.00
2018-06-29T18:02:58.721Z,56.00
2018-06-29T18:05:27.053Z,56.00
2018-06-29T18:07:55.394Z,56.00
2018-06-29T18:10:23.709Z,55.90
2018-06-29T18:12:52.269Z,56.00
2018-06-29T18:15:21.499Z,56.00
2018-06-29T18:17:50.716Z,56.00
2018-06-29T18:20:18.989Z,55.40
2018-06-29T18:22:47.470Z,55.90
2018-06-29T18:25:15.853Z,55.90
2018-06-29T18:27:44.128Z,55.90
2018-06-29T18:30:12.429Z,55.90
2018-06-29T18:32:40.751Z,55.90
2018-06-29T18:35:09.085Z,55.80
2018-06-29T18:37:37.390Z,55.80
2018-06-29T18:40:05.917Z,56.40
2018-06-29T18:42:34.250Z,55.80
2018-06-29T18:45:02.588Z,55.80
2018-06-29T18:47:30.923Z,55.80
2018-06-29T18:50:01.372Z,55.80
2018-06-29T18:52:29.703Z,55.80
2018-06-29T18:54:58.201Z,55.70
2018-06-29T18:57:28.416Z,55.90
2018-06-29T19:02:26.761Z,56.50
2018-06-29T19:04:56.269Z,55.90
2018-06-29T19:07:25.322Z,56.00
2018-06-29T19:09:54.716Z,56.20
2018-06-29T19:12:24.041Z,56.20
2018-06-29T19:14:53.471Z,56.00
2018-06-29T19:17:22.803Z,56.00
2018-06-29T19:19:52.911Z,56.00
2018-06-29T19:22:22.241Z,56.00
2018-06-29T19:24:52.899Z,56.00
2018-06-29T19:27:21.937Z,55.90
2018-06-29T19:29:50.886Z,55.90
2018-06-29T19:32:20.158Z,55.90
2018-06-29T19:34:49.648Z,56.00
2018-06-29T19:37:19.021Z,55.90
2018-06-29T19:39:48.486Z,55.90
2018-06-29T19:42:17.840Z,55.90
2018-06-29T19:44:46.354Z,56.20
2018-06-29T19:47:15.423Z,56.50
2018-06-29T19:49:45.152Z,56.80
2018-06-29T19:52:14.097Z,56.60
2018-06-29T19:54:42.426Z,56.80
2018-06-29T19:57:10.723Z,56.80
2018-06-29T19:59:39.043Z,56.80
2018-06-29T20:02:07.358Z,56.80
2018-06-29T20:04:35.726Z,56.70
2018-06-29T20:07:04.033Z,56.70
2018-06-29T20:09:32.357Z,56.80
2018-06-29T20:12:00.686Z,56.70
2018-06-29T20:14:30.003Z,56.70
2018-06-29T20:16:58.362Z,56.70
2018-06-29T20:19:26.686Z,56.60
2018-06-29T20:21:55.034Z,56.70
2018-06-29T20:24:23.313Z,56.80
2018-06-29T20:26:52.644Z,56.70
2018-06-29T20:29:20.960Z,56.60
2018-06-29T20:31:50.146Z,56.50
2018-06-29T20:34:19.649Z,56.60
2018-06-29T20:36:48.317Z,56.50
2018-06-29T20:39:18.632Z,56.50
2018-06-29T20:41:47.347Z,56.50
2018-06-29T20:44:15.646Z,56.50
2018-06-29T20:46:44.082Z,56.40
2018-06-29T20:49:12.431Z,56.40
2018-06-29T20:51:40.728Z,56.40
2018-06-29T20:54:09.009Z,56.40
2018-06-29T20:56:37.329Z,56.40
2018-06-29T20:59:05.686Z,56.40
2018-06-29T21:01:34.066Z,56.30
2018-06-29T21:04:02.376Z,56.30
2018-06-29T21:06:30.715Z,56.30
2018-06-29T21:08:59.051Z,56.40
2018-06-29T21:11:27.357Z,56.30
2018-06-29T21:13:55.680Z,56.30
2018-06-29T21:16:23.983Z,56.30
2018-06-29T21:18:52.306Z,56.40
2018-06-29T21:21:20.582Z,56.40
2018-06-29T21:23:49.941Z,56.30
2018-06-29T21:26:18.258Z,56.30
2018-06-29T21:28:47.547Z,56.30
2018-06-29T21:31:15.861Z,56.30
2018-06-29T21:33:44.299Z,56.30
2018-06-29T21:36:12.578Z,56.30
2018-06-29T21:38:40.911Z,56.30
2018-06-29T21:41:09.256Z,56.20
2018-06-29T21:43:38.582Z,56.20
2018-06-29T21:46:07.612Z,56.20
2018-06-29T21:48:36.617Z,56.30
2018-06-29T21:51:06.050Z,56.20
2018-06-29T21:53:35.035Z,56.20
2018-06-29T21:56:04.036Z,56.20
2018-06-29T21:58:33.398Z,56.10
2018-06-29T22:01:03.192Z,56.10
2018-06-29T22:03:32.274Z,56.10
2018-06-29T22:06:01.642Z,56.10
2018-06-29T22:08:31.832Z,56.00
2018-06-29T22:11:00.167Z,56.00
2018-06-29T22:15:57.729Z,56.00
2018-06-29T22:18:27.156Z,56.00
2018-06-29T22:20:56.489Z,56.00
2018-06-29T22:23:24.817Z,56.00
2018-06-29T22:25:53.106Z,56.00
2018-06-29T22:28:21.423Z,56.00
2018-06-29T22:30:49.780Z,56.00
2018-06-29T22:33:18.130Z,55.90
2018-06-29T22:35:46.422Z,56.00
2018-06-29T22:38:14.735Z,55.90
2018-06-29T22:40:43.042Z,55.90
2018-06-29T22:43:11.356Z,55.90
2018-06-29T22:45:39.665Z,56.60
2018-06-29T22:48:07.961Z,55.90
2018-06-29T22:50:37.270Z,55.90
2018-06-29T22:53:05.730Z,55.80
2018-06-29T22:55:34.069Z,55.90
2018-06-29T22:58:02.381Z,55.90
2018-06-29T23:00:31.742Z,56.00
2018-06-29T23:03:05.654Z,56.10
2018-06-29T23:05:35.014Z,56.00
2018-06-29T23:08:04.656Z,56.10
2018-06-29T23:10:33.031Z,56.00
2018-06-29T23:13:01.597Z,56.00
2018-06-29T23:15:29.992Z,55.90
2018-06-29T23:17:58.476Z,56.00
2018-06-29T23:20:26.854Z,56.20
2018-06-29T23:22:55.165Z,56.10
2018-06-29T23:25:24.617Z,56.50
2018-06-29T23:27:52.993Z,56.40
2018-06-29T23:30:21.303Z,57.10
2018-06-29T23:32:49.625Z,58.00
2018-06-29T23:35:17.967Z,58.10
2018-06-29T23:37:46.278Z,58.50
2018-06-29T23:40:14.590Z,58.60
2018-06-29T23:42:42.894Z,59.00
2018-06-29T23:45:11.210Z,59.10
2018-06-29T23:47:40.649Z,59.60
2018-06-29T23:50:08.962Z,59.70
2018-06-29T23:52:37.278Z,59.70
2018-06-29T23:55:05.597Z,59.60
2018-06-29T23:57:33.898Z,59.70
